createdAt,value
2019-05-21T00:01:07.775Z,16.84
2019-05-21T00:11:08.989Z,17.03
2019-05-21T00:21:10.440Z,17.03
2019-05-21T00:31:48.877Z,16.87
2019-05-21T00:41:59.343Z,16.97
2019-05-21T00:52:08.206Z,17.05
2019-05-21T01:02:03.586Z,16.81
2019-05-21T01:12:04.740Z,16.70
2019-05-21T01:22:05.854Z,16.51
2019-05-21T01:32:07.003Z,16.44
2019-05-21T01:42:08.231Z,16.27
2019-05-21T01:52:09.310Z,16.24
2019-05-21T02:02:13.301Z,16.04
2019-05-21T02:12:14.339Z,15.79
2019-05-21T02:22:15.456Z,15.75
2019-05-21T02:32:16.610Z,15.84
2019-05-21T02:42:17.636Z,16.21
2019-05-21T02:52:19.087Z,16.13
2019-05-21T03:02:22.066Z,15.99
2019-05-21T03:12:23.221Z,15.83
2019-05-21T03:22:24.372Z,15.82
2019-05-21T03:32:25.515Z,15.83
2019-05-21T03:42:27.515Z,15.80
2019-05-21T03:52:28.582Z,15.86
2019-05-21T04:02:29.641Z,15.86
2019-05-21T04:12:30.646Z,15.80
2019-05-21T04:22:31.776Z,15.86
2019-05-21T04:32:32.833Z,15.89
2019-05-21T04:42:33.868Z,16.11
2019-05-21T04:52:35.105Z,16.08
2019-05-21T05:02:36.379Z,16.09
2019-05-21T05:12:37.540Z,16.27
2019-05-21T05:22:38.564Z,16.53
2019-05-21T05:32:39.735Z,16.73
2019-05-21T05:42:40.839Z,16.88
2019-05-21T05:52:42.001Z,17.23
2019-05-21T06:02:43.042Z,16.98
2019-05-21T06:12:44.278Z,16.76
2019-05-21T06:22:45.318Z,16.85
2019-05-21T06:32:46.357Z,16.76
2019-05-21T06:42:47.401Z,16.87
2019-05-21T06:52:48.565Z,16.98
2019-05-21T07:02:49.698Z,16.71
2019-05-21T07:12:50.829Z,16.55
2019-05-21T07:22:52.056Z,16.87
2019-05-21T07:32:53.272Z,16.59
2019-05-21T07:42:54.259Z,16.85
2019-05-21T07:52:55.596Z,16.49
2019-05-21T08:02:57.168Z,17.52
2019-05-21T08:12:58.397Z,18.01
2019-05-21T08:22:59.559Z,17.82
2019-05-21T08:33:00.588Z,18.23
2019-05-21T08:43:01.836Z,17.70
2019-05-21T08:53:03.305Z,17.88
2019-05-21T09:03:04.558Z,17.82
2019-05-21T09:13:05.702Z,18.22
2019-05-21T09:23:06.930Z,19.04
2019-05-21T09:33:08.148Z,19.58
2019-05-21T09:43:09.116Z,19.61
2019-05-21T09:53:10.396Z,19.85
2019-05-21T10:03:16.427Z,19.79
2019-05-21T10:13:17.659Z,19.08
2019-05-21T10:23:18.810Z,18.54
2019-05-21T10:33:19.863Z,18.68
2019-05-21T10:43:20.976Z,19.65
2019-05-21T10:53:23.107Z,20.02
2019-05-21T11:03:43.996Z,20.27
2019-05-21T11:13:45.131Z,19.06
2019-05-21T11:23:46.214Z,18.93
2019-05-21T11:33:47.456Z,19.02
2019-05-21T11:43:48.708Z,19.69
2019-05-21T11:53:50.203Z,20.53
2019-05-21T12:03:51.459Z,20.92
2019-05-21T12:13:52.562Z,20.35
2019-05-21T12:23:53.594Z,19.60
2019-05-21T12:33:54.748Z,19.45
2019-05-21T12:43:55.769Z,20.62
2019-05-21T12:53:57.207Z,21.15
2019-05-21T13:03:58.426Z,21.53
2019-05-21T13:13:59.442Z,20.51
2019-05-21T13:24:00.490Z,20.21
2019-05-21T13:34:01.655Z,20.29
2019-05-21T13:44:03.262Z,20.72
2019-05-21T13:54:04.530Z,20.09
2019-05-21T14:04:05.689Z,19.82
2019-05-21T14:14:07.074Z,19.21
2019-05-21T14:24:09.249Z,18.78
2019-05-21T14:34:10.544Z,18.42
2019-05-21T14:44:11.690Z,18.25
2019-05-21T14:54:26.263Z,18.63
2019-05-21T15:04:17.699Z,18.63
2019-05-21T15:14:19.054Z,18.61
2019-05-21T15:24:20.261Z,18.24
2019-05-21T15:34:21.572Z,17.90
2019-05-21T15:44:22.682Z,18.06
2019-05-21T15:54:24.146Z,17.96
2019-05-21T16:04:25.867Z,18.02
2019-05-21T16:14:26.902Z,17.93
2019-05-21T16:24:27.965Z,17.57
2019-05-21T16:34:31.877Z,17.56
2019-05-21T16:44:32.499Z,17.68
2019-05-21T16:54:33.683Z,17.97
2019-05-21T17:04:35.016Z,17.95
2019-05-21T17:14:36.204Z,18.14
2019-05-21T17:24:37.521Z,18.25
2019-05-21T17:34:38.755Z,17.53
2019-05-21T17:44:40.266Z,17.26
2019-05-21T17:54:55.559Z,17.07
2019-05-21T18:04:44.661Z,16.69
2019-05-21T18:14:46.753Z,16.46
2019-05-21T18:24:48.867Z,16.31
2019-05-21T18:34:50.959Z,16.28
2019-05-21T18:44:53.287Z,16.28
2019-05-21T18:54:54.622Z,16.29
2019-05-21T19:04:55.729Z,16.21
2019-05-21T19:14:57.139Z,16.22
2019-05-21T19:24:58.408Z,16.20
2019-05-21T19:34:59.681Z,16.08
2019-05-21T19:45:00.937Z,16.07
2019-05-21T19:55:05.191Z,16.01
2019-05-21T20:05:08.049Z,15.79
2019-05-21T20:15:09.902Z,15.92
2019-05-21T20:25:12.748Z,15.81
2019-05-21T20:35:16.113Z,15.78
2019-05-21T20:45:20.486Z,15.80
2019-05-21T20:55:21.958Z,15.80
2019-05-21T21:05:23.687Z,15.83
2019-05-21T21:15:25.566Z,15.85
2019-05-21T21:25:28.025Z,15.70
2019-05-21T21:35:29.385Z,15.63
2019-05-21T21:45:31.532Z,15.73
2019-05-21T21:55:32.960Z,15.61
2019-05-21T22:05:35.021Z,15.59
2019-05-21T22:15:36.783Z,15.59
2019-05-21T22:25:38.133Z,15.56
2019-05-21T22:35:39.480Z,15.67
2019-05-21T22:45:40.685Z,15.56
2019-05-21T22:55:42.754Z,15.53
2019-05-21T23:05:43.979Z,15.48
2019-05-21T23:15:46.992Z,15.39
2019-05-21T23:25:50.044Z,15.42
2019-05-21T23:35:53.007Z,15.42
2019-05-21T23:45:54.217Z,15.42
2019-05-21T23:55:55.736Z,15.40
